sensor_id;sensor_type;location;lat;lon;timestamp;pressure;altitude;pressure_sealevel;temperature;humidity
30554;BME280;17335;50.720;7.452;2023-07-13T00:00:10;99247.84;;;15.76;100.00
30554;BME280;17335;50.720;7.452;2023-07-13T00:02:37;99255.44;;;15.72;100.00
30554;BME280;17335;50.720;7.452;2023-07-13T00:05:04;99253.09;;;15.69;100.00
30554;BME280;17335;50.720;7.452;2023-07-13T00:07:30;99258.50;;;15.69;100.00
30554;BME280;17335;50.720;7.452;2023-07-13T00:09:58;99258.03;;;15.66;100.00
30554;BME280;17335;50.720;7.452;2023-07-13T00:12:31;99256.41;;;15.56;100.00
30554;BME280;17335;50.720;7.452;2023-07-13T00:15:01;99254.28;;;15.44;100.00
30554;BME280;17335;50.720;7.452;2023-07-13T00:17:28;99250.78;;;15.35;100.00
30554;BME280;17335;50.720;7.452;2023-07-13T00:19:55;99255.88;;;15.30;100.00
30554;BME280;17335;50.720;7.452;2023-07-13T00:22:25;99251.22;;;15.24;100.00
30554;BME280;17335;50.720;7.452;2023-07-13T00:24:53;99262.19;;;15.22;100.00
30554;BME280;17335;50.720;7.452;2023-07-13T00:27:22;99259.84;;;15.19;100.00
30554;BME280;17335;50.720;7.452;2023-07-13T00:29:49;99245.00;;;15.15;100.00
30554;BME280;17335;50.720;7.452;2023-07-13T00:32:16;99242.81;;;15.10;100.00
30554;BME280;17335;50.720;7.452;2023-07-13T00:34:42;99247.72;;;15.07;100.00
30554;BME280;17335;50.720;7.452;2023-07-13T00:37:10;99238.66;;;14.99;100.00
30554;BME280;17335;50.720;7.452;2023-07-13T00:39:37;99246.28;;;14.96;100.00
30554;BME280;17335;50.720;7.452;2023-07-13T00:42:05;99248.19;;;14.79;100.00
30554;BME280;17335;50.720;7.452;2023-07-13T00:44:32;99235.69;;;14.70;100.00
30554;BME280;17335;50.720;7.452;2023-07-13T00:46:58;99225.09;;;14.68;100.00
30554;BME280;17335;50.720;7.452;2023-07-13T00:49:27;99236.06;;;14.67;100.00
30554;BME280;17335;50.720;7.452;2023-07-13T00:51:59;99238.78;;;14.58;100.00
30554;BME280;17335;50.720;7.452;2023-07-13T00:54:35;99237.06;;;14.57;100.00
30554;BME280;17335;50.720;7.452;2023-07-13T00:57:06;99244.84;;;14.52;100.00
30554;BME280;17335;50.720;7.452;2023-07-13T00:59:35;99238.44;;;14.45;100.00
30554;BME280;17335;50.720;7.452;2023-07-13T01:02:03;99237.97;;;14.41;100.00
30554;BME280;17335;50.720;7.452;2023-07-13T01:04:30;99245.06;;;14.34;100.00
30554;BME280;17335;50.720;7.452;2023-07-13T01:06:57;99251.69;;;14.23;100.00
30554;BME280;17335;50.720;7.452;2023-07-13T01:09:26;99253.84;;;14.20;100.00
30554;BME280;17335;50.720;7.452;2023-07-13T01:11:53;99249.66;;;14.09;100.00
30554;BME280;17335;50.720;7.452;2023-07-13T01:14:20;99250.84;;;14.06;100.00
30554;BME280;17335;50.720;7.452;2023-07-13T01:16:47;99248.31;;;14.05;100.00
30554;BME280;17335;50.720;7.452;2023-07-13T01:19:39;99251.66;;;13.99;100.00
30554;BME280;17335;50.720;7.452;2023-07-13T01:22:13;99251.84;;;13.97;100.00
30554;BME280;17335;50.720;7.452;2023-07-13T01:24:42;99258.75;;;13.92;100.00
30554;BME280;17335;50.720;7.452;2023-07-13T01:27:12;99250.66;;;13.83;100.00
30554;BME280;17335;50.720;7.452;2023-07-13T01:29:40;99256.38;;;13.80;100.00
30554;BME280;17335;50.720;7.452;2023-07-13T01:32:13;99257.75;;;13.76;100.00
30554;BME280;17335;50.720;7.452;2023-07-13T01:34:40;99250.31;;;13.70;100.00
30554;BME280;17335;50.720;7.452;2023-07-13T01:37:12;99252.34;;;13.68;100.00
30554;BME280;17335;50.720;7.452;2023-07-13T01:39:39;99248.94;;;13.58;100.00
30554;BME280;17335;50.720;7.452;2023-07-13T01:42:06;99250.13;;;13.55;100.00
30554;BME280;17335;50.720;7.452;2023-07-13T01:44:33;99248.97;;;13.49;100.00
30554;BME280;17335;50.720;7.452;2023-07-13T01:47:00;99255.31;;;13.40;100.00
30554;BME280;17335;50.720;7.452;2023-07-13T01:49:27;99259.38;;;13.36;100.00
30554;BME280;17335;50.720;7.452;2023-07-13T01:51:54;99248.44;;;13.38;100.00
30554;BME280;17335;50.720;7.452;2023-07-13T01:54:20;99259.38;;;13.36;100.00
30554;BME280;17335;50.720;7.452;2023-07-13T01:56:47;99256.00;;;13.34;100.00
30554;BME280;17335;50.720;7.452;2023-07-13T01:59:13;99250.91;;;13.31;100.00
30554;BME280;17335;50.720;7.452;2023-07-13T02:01:40;99255.94;;;13.26;100.00
30554;BME280;17335;50.720;7.452;2023-07-13T02:04:07;99255.75;;;13.19;100.00
30554;BME280;17335;50.720;7.452;2023-07-13T02:06:33;99247.00;;;13.17;100.00
30554;BME280;17335;50.720;7.452;2023-07-13T02:09:00;99254.88;;;13.10;100.00
30554;BME280;17335;50.720;7.452;2023-07-13T02:11:26;99255.00;;;13.01;100.00
30554;BME280;17335;50.720;7.452;2023-07-13T02:14:00;99249.09;;;12.97;100.00
30554;BME280;17335;50.720;7.452;2023-07-13T02:16:29;99257.88;;;12.99;100.00
30554;BME280;17335;50.720;7.452;2023-07-13T02:18:56;99255.16;;;12.99;100.00
30554;BME280;17335;50.720;7.452;2023-07-13T02:21:23;99259.59;;;13.08;100.00
30554;BME280;17335;50.720;7.452;2023-07-13T02:23:50;99261.06;;;13.03;100.00
30554;BME280;17335;50.720;7.452;2023-07-13T02:26:16;99270.19;;;13.02;100.00
30554;BME280;17335;50.720;7.452;2023-07-13T02:28:43;99266.50;;;13.11;100.00
30554;BME280;17335;50.720;7.452;2023-07-13T02:31:12;99268.31;;;13.02;100.00
30554;BME280;17335;50.720;7.452;2023-07-13T02:33:40;99263.28;;;13.07;100.00
30554;BME280;17335;50.720;7.452;2023-07-13T02:36:07;99266.25;;;12.96;100.00
30554;BME280;17335;50.720;7.452;2023-07-13T02:38:35;99265.91;;;12.91;100.00
30554;BME280;17335;50.720;7.452;2023-07-13T02:41:04;99270.63;;;12.89;100.00
30554;BME280;17335;50.720;7.452;2023-07-13T02:43:31;99267.59;;;12.92;100.00
30554;BME280;17335;50.720;7.452;2023-07-13T02:45:59;99254.81;;;12.94;100.00
30554;BME280;17335;50.720;7.452;2023-07-13T02:48:30;99259.88;;;12.97;100.00
30554;BME280;17335;50.720;7.452;2023-07-13T02:50:57;99268.63;;;12.99;100.00
30554;BME280;17335;50.720;7.452;2023-07-13T02:53:24;99271.84;;;12.94;100.00
30554;BME280;17335;50.720;7.452;2023-07-13T02:55:51;99267.97;;;12.97;100.00
30554;BME280;17335;50.720;7.452;2023-07-13T02:58:17;99264.94;;;13.00;100.00
30554;BME280;17335;50.720;7.452;2023-07-13T03:00:45;99269.50;;;13.00;100.00
30554;BME280;17335;50.720;7.452;2023-07-13T03:03:13;99270.03;;;13.03;100.00
30554;BME280;17335;50.720;7.452;2023-07-13T03:05:42;99270.66;;;12.97;100.00
30554;BME280;17335;50.720;7.452;2023-07-13T03:08:09;99272.00;;;13.01;100.00
30554;BME280;17335;50.720;7.452;2023-07-13T03:10:36;99282.47;;;13.04;100.00
30554;BME280;17335;50.720;7.452;2023-07-13T03:13:03;99280.66;;;13.13;100.00
30554;BME280;17335;50.720;7.452;2023-07-13T03:15:30;99280.34;;;13.16;100.00
30554;BME280;17335;50.720;7.452;2023-07-13T03:17:57;99280.00;;;13.19;100.00
30554;BME280;17335;50.720;7.452;2023-07-13T03:20:23;99273.94;;;13.25;100.00
30554;BME280;17335;50.720;7.452;2023-07-13T03:22:50;99280.28;;;13.34;100.00
30554;BME280;17335;50.720;7.452;2023-07-13T03:25:17;99283.31;;;13.39;100.00
30554;BME280;17335;50.720;7.452;2023-07-13T03:27:44;99277.72;;;13.41;100.00
30554;BME280;17335;50.720;7.452;2023-07-13T03:30:11;99282.81;;;13.44;100.00
30554;BME280;17335;50.720;7.452;2023-07-13T03:32:37;99287.56;;;13.50;100.00
30554;BME280;17335;50.720;7.452;2023-07-13T03:35:04;99285.19;;;13.47;100.00
30554;BME280;17335;50.720;7.452;2023-07-13T03:37:31;99278.28;;;13.44;100.00
30554;BME280;17335;50.720;7.452;2023-07-13T03:39:57;99287.72;;;13.48;100.00
30554;BME280;17335;50.720;7.452;2023-07-13T03:42:24;99289.06;;;13.44;100.00
30554;BME280;17335;50.720;7.452;2023-07-13T03:44:52;99284.00;;;13.41;100.00
30554;BME280;17335;50.720;7.452;2023-07-13T03:47:19;99289.41;;;13.49;100.00
30554;BME280;17335;50.720;7.452;2023-07-13T03:49:45;99290.56;;;13.47;100.00
30554;BME280;17335;50.720;7.452;2023-07-13T03:52:12;99293.44;;;13.45;100.00
30554;BME280;17335;50.720;7.452;2023-07-13T03:54:39;99300.69;;;13.45;100.00
30554;BME280;17335;50.720;7.452;2023-07-13T03:57:05;99298.16;;;13.43;100.00
30554;BME280;17335;50.720;7.452;2023-07-13T03:59:32;99296.44;;;13.42;100.00
30554;BME280;17335;50.720;7.452;2023-07-13T04:02:00;99303.22;;;13.46;100.00
30554;BME280;17335;50.720;7.452;2023-07-13T04:04:27;99300.53;;;13.46;100.00
30554;BME280;17335;50.720;7.452;2023-07-13T04:06:54;99303.91;;;13.48;100.00
30554;BME280;17335;50.720;7.452;2023-07-13T04:09:21;99301.56;;;13.62;100.00
30554;BME280;17335;50.720;7.452;2023-07-13T04:11:50;99298.03;;;13.69;100.00
30554;BME280;17335;50.720;7.452;2023-07-13T04:14:17;99293.31;;;13.80;100.00
30554;BME280;17335;50.720;7.452;2023-07-13T04:16:43;99293.84;;;13.92;100.00
30554;BME280;17335;50.720;7.452;2023-07-13T04:19:10;99290.13;;;14.01;100.00
30554;BME280;17335;50.720;7.452;2023-07-13T04:21:37;99293.84;;;14.24;100.00
30554;BME280;17335;50.720;7.452;2023-07-13T04:24:04;99300.25;;;14.32;100.00
30554;BME280;17335;50.720;7.452;2023-07-13T04:26:31;99301.78;;;14.42;100.00
30554;BME280;17335;50.720;7.452;2023-07-13T04:28:58;99299.72;;;14.61;100.00
30554;BME280;17335;50.720;7.452;2023-07-13T04:31:25;99308.00;;;14.68;100.00
30554;BME280;17335;50.720;7.452;2023-07-13T04:33:52;99295.78;;;14.80;100.00
30554;BME280;17335;50.720;7.452;2023-07-13T04:36:19;99300.53;;;14.86;100.00
30554;BME280;17335;50.720;7.452;2023-07-13T04:38:46;99301.84;;;14.90;100.00
30554;BME280;17335;50.720;7.452;2023-07-13T04:41:15;99297.47;;;14.97;100.00
30554;BME280;17335;50.720;7.452;2023-07-13T04:43:42;99300.09;;;15.06;100.00
30554;BME280;17335;50.720;7.452;2023-07-13T04:46:11;99305.88;;;15.03;100.00
30554;BME280;17335;50.720;7.452;2023-07-13T04:48:39;99315.16;;;15.00;100.00
30554;BME280;17335;50.720;7.452;2023-07-13T04:51:06;99317.53;;;15.03;100.00
30554;BME280;17335;50.720;7.452;2023-07-13T04:53:33;99317.03;;;15.08;100.00
30554;BME280;17335;50.720;7.452;2023-07-13T04:56:02;99319.81;;;15.23;100.00
30554;BME280;17335;50.720;7.452;2023-07-13T04:58:29;99320.25;;;15.43;100.00
30554;BME280;17335;50.720;7.452;2023-07-13T05:01:03;99303.22;;;18.05;100.00
30554;BME280;17335;50.720;7.452;2023-07-13T05:03:31;99292.88;;;21.35;100.00
30554;BME280;17335;50.720;7.452;2023-07-13T05:06:06;99291.81;;;23.63;82.80
30554;BME280;17335;50.720;7.452;2023-07-13T05:08:33;99287.13;;;25.42;65.06
30554;BME280;17335;50.720;7.452;2023-07-13T05:11:01;99286.91;;;25.73;59.95
30554;BME280;17335;50.720;7.452;2023-07-13T05:13:28;99290.75;;;26.00;59.38
30554;BME280;17335;50.720;7.452;2023-07-13T05:16:01;99292.44;;;26.35;56.66
30554;BME280;17335;50.720;7.452;2023-07-13T05:18:28;99288.91;;;26.69;55.64
30554;BME280;17335;50.720;7.452;2023-07-13T05:21:01;99296.72;;;27.16;52.71
30554;BME280;17335;50.720;7.452;2023-07-13T05:23:29;99292.94;;;27.22;53.76
30554;BME280;17335;50.720;7.452;2023-07-13T05:25:56;99292.41;;;26.64;54.06
30554;BME280;17335;50.720;7.452;2023-07-13T05:28:22;99292.78;;;26.05;58.20
30554;BME280;17335;50.720;7.452;2023-07-13T05:30:50;99290.50;;;25.44;60.52
30554;BME280;17335;50.720;7.452;2023-07-13T05:33:17;99297.94;;;25.08;60.22
30554;BME280;17335;50.720;7.452;2023-07-13T05:35:43;99294.03;;;24.69;61.60
30554;BME280;17335;50.720;7.452;2023-07-13T05:38:10;99304.25;;;24.38;68.88
30554;BME280;17335;50.720;7.452;2023-07-13T05:40:37;99315.78;;;24.28;68.14
30554;BME280;17335;50.720;7.452;2023-07-13T05:43:04;99310.78;;;23.83;73.11
30554;BME280;17335;50.720;7.452;2023-07-13T05:45:30;99306.97;;;23.66;73.97
30554;BME280;17335;50.720;7.452;2023-07-13T05:47:57;99302.78;;;23.63;78.21
30554;BME280;17335;50.720;7.452;2023-07-13T05:50:26;99309.28;;;23.50;78.49
30554;BME280;17335;50.720;7.452;2023-07-13T05:52:52;99310.25;;;23.56;77.20
30554;BME280;17335;50.720;7.452;2023-07-13T05:55:19;99308.13;;;23.58;86.21
30554;BME280;17335;50.720;7.452;2023-07-13T05:57:46;99310.47;;;23.73;79.56
30554;BME280;17335;50.720;7.452;2023-07-13T06:00:13;99319.41;;;23.80;80.21
30554;BME280;17335;50.720;7.452;2023-07-13T06:02:41;99320.34;;;23.92;74.79
30554;BME280;17335;50.720;7.452;2023-07-13T06:05:08;99314.34;;;23.65;73.49
30554;BME280;17335;50.720;7.452;2023-07-13T06:07:34;99321.50;;;23.85;76.81
30554;BME280;17335;50.720;7.452;2023-07-13T06:10:01;99319.81;;;23.84;79.97
30554;BME280;17335;50.720;7.452;2023-07-13T06:12:28;99328.66;;;23.86;75.77
30554;BME280;17335;50.720;7.452;2023-07-13T06:14:55;99321.66;;;23.71;80.43
30554;BME280;17335;50.720;7.452;2023-07-13T06:17:21;99322.03;;;23.93;74.57
30554;BME280;17335;50.720;7.452;2023-07-13T06:19:48;99316.56;;;24.05;72.02
30554;BME280;17335;50.720;7.452;2023-07-13T06:22:15;99331.41;;;23.67;75.74
30554;BME280;17335;50.720;7.452;2023-07-13T06:24:42;99329.22;;;23.39;76.68
30554;BME280;17335;50.720;7.452;2023-07-13T06:27:08;99330.84;;;23.47;84.57
30554;BME280;17335;50.720;7.452;2023-07-13T06:29:35;99335.47;;;22.59;83.45
30554;BME280;17335;50.720;7.452;2023-07-13T06:32:02;99332.78;;;22.20;87.98
30554;BME280;17335;50.720;7.452;2023-07-13T06:34:29;99335.03;;;21.98;96.71
30554;BME280;17335;50.720;7.452;2023-07-13T06:36:56;99336.00;;;22.10;100.00
30554;BME280;17335;50.720;7.452;2023-07-13T06:39:22;99333.25;;;21.85;97.61
30554;BME280;17335;50.720;7.452;2023-07-13T06:41:49;99336.84;;;21.72;99.77
30554;BME280;17335;50.720;7.452;2023-07-13T06:44:16;99338.25;;;21.36;100.00
30554;BME280;17335;50.720;7.452;2023-07-13T06:46:43;99339.50;;;21.41;100.00
30554;BME280;17335;50.720;7.452;2023-07-13T06:49:09;99337.22;;;21.31;100.00
30554;BME280;17335;50.720;7.452;2023-07-13T06:51:36;99343.59;;;20.91;100.00
30554;BME280;17335;50.720;7.452;2023-07-13T06:54:03;99340.25;;;20.96;100.00
30554;BME280;17335;50.720;7.452;2023-07-13T06:56:30;99338.16;;;20.78;100.00
30554;BME280;17335;50.720;7.452;2023-07-13T06:58:57;99343.41;;;20.73;100.00
30554;BME280;17335;50.720;7.452;2023-07-13T07:01:23;99343.63;;;20.78;100.00
30554;BME280;17335;50.720;7.452;2023-07-13T07:03:50;99353.03;;;20.55;100.00
30554;BME280;17335;50.720;7.452;2023-07-13T07:06:19;99344.84;;;20.55;100.00
30554;BME280;17335;50.720;7.452;2023-07-13T07:08:46;99353.66;;;20.57;100.00
30554;BME280;17335;50.720;7.452;2023-07-13T07:11:17;99348.44;;;20.49;100.00
30554;BME280;17335;50.720;7.452;2023-07-13T07:13:44;99347.16;;;20.58;100.00
30554;BME280;17335;50.720;7.452;2023-07-13T07:16:11;99357.03;;;20.59;100.00
30554;BME280;17335;50.720;7.452;2023-07-13T07:18:38;99353.88;;;20.42;100.00
30554;BME280;17335;50.720;7.452;2023-07-13T07:21:05;99352.63;;;20.45;100.00
30554;BME280;17335;50.720;7.452;2023-07-13T07:23:32;99349.66;;;20.33;100.00
30554;BME280;17335;50.720;7.452;2023-07-13T07:25:59;99350.50;;;20.27;100.00
30554;BME280;17335;50.720;7.452;2023-07-13T07:28:25;99347.81;;;20.34;100.00
30554;BME280;17335;50.720;7.452;2023-07-13T07:31:09;99349.25;;;20.36;100.00
30554;BME280;17335;50.720;7.452;2023-07-13T07:33:39;99357.03;;;20.46;100.00
30554;BME280;17335;50.720;7.452;2023-07-13T07:36:06;99357.03;;;20.39;100.00
30554;BME280;17335;50.720;7.452;2023-07-13T07:38:35;99353.91;;;20.63;100.00
30554;BME280;17335;50.720;7.452;2023-07-13T07:41:03;99346.13;;;20.79;100.00
30554;BME280;17335;50.720;7.452;2023-07-13T07:43:33;99353.50;;;20.86;100.00
30554;BME280;17335;50.720;7.452;2023-07-13T07:46:00;99353.03;;;20.95;100.00
30554;BME280;17335;50.720;7.452;2023-07-13T07:48:29;99353.91;;;20.76;100.00
30554;BME280;17335;50.720;7.452;2023-07-13T07:50:56;99365.84;;;20.55;100.00
30554;BME280;17335;50.720;7.452;2023-07-13T07:53:23;99366.00;;;20.20;100.00
30554;BME280;17335;50.720;7.452;2023-07-13T07:55:49;99370.38;;;19.94;100.00
30554;BME280;17335;50.720;7.452;2023-07-13T07:58:20;99365.50;;;19.83;100.00
30554;BME280;17335;50.720;7.452;2023-07-13T08:00:50;99378.53;;;19.94;100.00
30554;BME280;17335;50.720;7.452;2023-07-13T08:03:19;99375.19;;;20.05;100.00
30554;BME280;17335;50.720;7.452;2023-07-13T08:05:52;99371.91;;;20.23;100.00
30554;BME280;17335;50.720;7.452;2023-07-13T08:08:22;99374.84;;;20.29;100.00
30554;BME280;17335;50.720;7.452;2023-07-13T08:10:49;99382.81;;;20.43;100.00
30554;BME280;17335;50.720;7.452;2023-07-13T08:13:16;99377.78;;;20.47;100.00
30554;BME280;17335;50.720;7.452;2023-07-13T08:15:43;99371.50;;;20.47;100.00
30554;BME280;17335;50.720;7.452;2023-07-13T08:18:09;99369.41;;;20.55;100.00
30554;BME280;17335;50.720;7.452;2023-07-13T08:20:37;99366.50;;;20.77;100.00
30554;BME280;17335;50.720;7.452;2023-07-13T08:23:05;99353.06;;;20.89;100.00
30554;BME280;17335;50.720;7.452;2023-07-13T08:25:32;99348.03;;;20.92;100.00
30554;BME280;17335;50.720;7.452;2023-07-13T08:27:58;99342.97;;;20.96;100.00
30554;BME280;17335;50.720;7.452;2023-07-13T08:30:25;99355.94;;;21.14;100.00
30554;BME280;17335;50.720;7.452;2023-07-13T08:32:54;99354.22;;;21.26;100.00
30554;BME280;17335;50.720;7.452;2023-07-13T08:35:20;99349.88;;;21.12;100.00
30554;BME280;17335;50.720;7.452;2023-07-13T08:37:47;99349.69;;;20.80;100.00
30554;BME280;17335;50.720;7.452;2023-07-13T08:40:14;99343.81;;;20.76;100.00
30554;BME280;17335;50.720;7.452;2023-07-13T08:42:45;99345.50;;;20.77;100.00
30554;BME280;17335;50.720;7.452;2023-07-13T08:45:20;99345.31;;;20.79;100.00
30554;BME280;17335;50.720;7.452;2023-07-13T08:48:08;99342.78;;;20.91;100.00
30554;BME280;17335;50.720;7.452;2023-07-13T08:50:49;99345.94;;;20.74;100.00
30554;BME280;17335;50.720;7.452;2023-07-13T08:53:34;99343.41;;;20.73;100.00
30554;BME280;17335;50.720;7.452;2023-07-13T08:56:04;99348.88;;;20.73;100.00
30554;BME280;17335;50.720;7.452;2023-07-13T08:58:36;99349.28;;;20.83;100.00
30554;BME280;17335;50.720;7.452;2023-07-13T09:04:05;99339.56;;;21.14;100.00
30554;BME280;17335;50.720;7.452;2023-07-13T09:07:01;99336.34;;;21.44;100.00
30554;BME280;17335;50.720;7.452;2023-07-13T09:09:52;99337.59;;;21.48;100.00
30554;BME280;17335;50.720;7.452;2023-07-13T09:15:35;99333.09;;;21.73;100.00
30554;BME280;17335;50.720;7.452;2023-07-13T09:21:02;99328.97;;;21.96;100.00
30554;BME280;17335;50.720;7.452;2023-07-13T09:23:30;99332.22;;;22.12;100.00
30554;BME280;17335;50.720;7.452;2023-07-13T09:26:05;99331.47;;;21.98;100.00
30554;BME280;17335;50.720;7.452;2023-07-13T09:28:44;99334.78;;;22.06;100.00
30554;BME280;17335;50.720;7.452;2023-07-13T09:31:15;99325.38;;;22.34;95.46
30554;BME280;17335;50.720;7.452;2023-07-13T09:33:42;99344.06;;;22.37;100.00
30554;BME280;17335;50.720;7.452;2023-07-13T09:36:26;99341.13;;;22.39;97.86
30554;BME280;17335;50.720;7.452;2023-07-13T09:42:20;99329.88;;;22.15;87.10
30554;BME280;17335;50.720;7.452;2023-07-13T09:44:57;99330.50;;;22.49;96.61
30554;BME280;17335;50.720;7.452;2023-07-13T09:47:29;99330.00;;;22.59;91.27
30554;BME280;17335;50.720;7.452;2023-07-13T09:49:57;99332.34;;;22.80;85.01
30554;BME280;17335;50.720;7.452;2023-07-13T09:52:48;99334.34;;;22.92;81.96
30554;BME280;17335;50.720;7.452;2023-07-13T09:55:35;99334.78;;;22.89;77.06
30554;BME280;17335;50.720;7.452;2023-07-13T09:58:10;99341.53;;;22.68;87.34
30554;BME280;17335;50.720;7.452;2023-07-13T10:00:37;99325.00;;;22.56;77.63
30554;BME280;17335;50.720;7.452;2023-07-13T10:03:18;99325.78;;;23.07;70.20
30554;BME280;17335;50.720;7.452;2023-07-13T10:05:47;99337.88;;;23.36;83.58
30554;BME280;17335;50.720;7.452;2023-07-13T10:08:18;99331.34;;;23.37;74.86
30554;BME280;17335;50.720;7.452;2023-07-13T10:10:46;99338.22;;;23.02;69.88
30554;BME280;17335;50.720;7.452;2023-07-13T10:13:35;99331.72;;;22.78;73.50
30554;BME280;17335;50.720;7.452;2023-07-13T10:16:05;99336.13;;;22.79;73.97
30554;BME280;17335;50.720;7.452;2023-07-13T10:18:55;99337.91;;;23.17;69.99
30554;BME280;17335;50.720;7.452;2023-07-13T10:21:27;99333.78;;;23.45;67.84
30554;BME280;17335;50.720;7.452;2023-07-13T10:24:22;99343.06;;;23.63;71.65
30554;BME280;17335;50.720;7.452;2023-07-13T10:26:56;99349.84;;;23.42;68.31
30554;BME280;17335;50.720;7.452;2023-07-13T10:29:26;99337.28;;;23.15;70.54
30554;BME280;17335;50.720;7.452;2023-07-13T10:31:54;99343.47;;;23.04;71.52
30554;BME280;17335;50.720;7.452;2023-07-13T10:34:21;99349.47;;;23.19;84.18
30554;BME280;17335;50.720;7.452;2023-07-13T10:36:51;99339.72;;;22.98;76.10
30554;BME280;17335;50.720;7.452;2023-07-13T10:39:27;99345.81;;;23.44;76.66
30554;BME280;17335;50.720;7.452;2023-07-13T10:41:58;99342.41;;;23.79;69.92
30554;BME280;17335;50.720;7.452;2023-07-13T10:44:28;99334.66;;;23.76;68.81
30554;BME280;17335;50.720;7.452;2023-07-13T10:47:02;99335.88;;;23.80;72.58
30554;BME280;17335;50.720;7.452;2023-07-13T10:49:33;99346.34;;;23.53;70.77
30554;BME280;17335;50.720;7.452;2023-07-13T10:52:02;99344.16;;;22.99;71.40
30554;BME280;17335;50.720;7.452;2023-07-13T10:57:21;99360.47;;;22.88;81.59
30554;BME280;17335;50.720;7.452;2023-07-13T11:00:13;99359.88;;;23.11;80.67
30554;BME280;17335;50.720;7.452;2023-07-13T11:02:41;99365.50;;;23.34;82.11
30554;BME280;17335;50.720;7.452;2023-07-13T11:05:30;99364.31;;;23.30;73.04
30554;BME280;17335;50.720;7.452;2023-07-13T11:10:57;99364.44;;;24.21;70.63
30554;BME280;17335;50.720;7.452;2023-07-13T11:13:39;99346.19;;;24.57;62.15
30554;BME280;17335;50.720;7.452;2023-07-13T11:18:52;99367.00;;;24.04;67.16
30554;BME280;17335;50.720;7.452;2023-07-13T11:21:25;99361.78;;;23.66;69.33
30554;BME280;17335;50.720;7.452;2023-07-13T11:24:14;99366.88;;;23.25;68.58
30554;BME280;17335;50.720;7.452;2023-07-13T11:31:42;99354.41;;;23.66;73.18
30554;BME280;17335;50.720;7.452;2023-07-13T11:34:15;99364.38;;;23.42;68.47
30554;BME280;17335;50.720;7.452;2023-07-13T11:36:44;99365.88;;;23.38;71.39
30554;BME280;17335;50.720;7.452;2023-07-13T11:39:26;99363.16;;;23.19;73.75
30554;BME280;17335;50.720;7.452;2023-07-13T11:41:57;99372.78;;;22.78;75.19
30554;BME280;17335;50.720;7.452;2023-07-13T11:44:27;99376.63;;;22.71;81.96
30554;BME280;17335;50.720;7.452;2023-07-13T11:46:57;99369.31;;;22.64;85.01
30554;BME280;17335;50.720;7.452;2023-07-13T11:49:30;99363.31;;;22.99;84.73
30554;BME280;17335;50.720;7.452;2023-07-13T11:51:59;99367.97;;;22.99;84.94
30554;BME280;17335;50.720;7.452;2023-07-13T11:54:31;99379.41;;;22.89;88.56
30554;BME280;17335;50.720;7.452;2023-07-13T11:57:17;99384.66;;;22.91;84.12
30554;BME280;17335;50.720;7.452;2023-07-13T11:59:51;99384.44;;;22.67;77.69
30554;BME280;17335;50.720;7.452;2023-07-13T12:02:28;99387.84;;;22.88;76.36
30554;BME280;17335;50.720;7.452;2023-07-13T12:04:55;99390.47;;;22.76;73.70
30554;BME280;17335;50.720;7.452;2023-07-13T12:07:23;99390.25;;;22.52;70.56
30554;BME280;17335;50.720;7.452;2023-07-13T12:09:49;99375.13;;;22.50;72.93
30554;BME280;17335;50.720;7.452;2023-07-13T12:12:19;99375.69;;;22.58;74.65
30554;BME280;17335;50.720;7.452;2023-07-13T12:14:45;99373.56;;;22.85;71.77
30554;BME280;17335;50.720;7.452;2023-07-13T12:17:23;99379.66;;;23.13;67.48
30554;BME280;17335;50.720;7.452;2023-07-13T12:19:51;99377.47;;;23.21;64.11
30554;BME280;17335;50.720;7.452;2023-07-13T12:22:20;99372.75;;;23.29;65.42
30554;BME280;17335;50.720;7.452;2023-07-13T12:24:48;99377.63;;;23.27;66.79
30554;BME280;17335;50.720;7.452;2023-07-13T12:27:24;99380.03;;;23.16;61.65
30554;BME280;17335;50.720;7.452;2023-07-13T12:30:03;99394.84;;;23.09;62.60
30554;BME280;17335;50.720;7.452;2023-07-13T12:32:31;99386.72;;;23.20;60.77
30554;BME280;17335;50.720;7.452;2023-07-13T12:35:15;99385.16;;;23.50;61.72
30554;BME280;17335;50.720;7.452;2023-07-13T12:37:46;99396.25;;;23.55;60.28
30554;BME280;17335;50.720;7.452;2023-07-13T12:40:16;99388.25;;;23.53;58.28
30554;BME280;17335;50.720;7.452;2023-07-13T12:42:49;99394.34;;;23.18;58.49
30554;BME280;17335;50.720;7.452;2023-07-13T12:45:23;99388.91;;;23.12;59.93
30554;BME280;17335;50.720;7.452;2023-07-13T12:47:56;99407.69;;;23.08;57.09
30554;BME280;17335;50.720;7.452;2023-07-13T12:50:30;99406.69;;;23.02;58.48
30554;BME280;17335;50.720;7.452;2023-07-13T12:53:02;99403.34;;;23.00;62.39
30554;BME280;17335;50.720;7.452;2023-07-13T12:55:44;99406.66;;;23.09;65.89
30554;BME280;17335;50.720;7.452;2023-07-13T13:00:55;99411.41;;;23.39;61.52
30554;BME280;17335;50.720;7.452;2023-07-13T13:03:31;99415.91;;;23.33;60.07
30554;BME280;17335;50.720;7.452;2023-07-13T13:06:26;99418.16;;;23.18;60.62
30554;BME280;17335;50.720;7.452;2023-07-13T13:08:55;99417.31;;;23.17;64.49
30554;BME280;17335;50.720;7.452;2023-07-13T13:11:23;99416.53;;;23.10;61.84
30554;BME280;17335;50.720;7.452;2023-07-13T13:13:50;99415.84;;;22.90;58.45
30554;BME280;17335;50.720;7.452;2023-07-13T13:16:26;99412.53;;;22.81;60.51
30554;BME280;17335;50.720;7.452;2023-07-13T13:19:10;99413.56;;;22.87;64.26
30554;BME280;17335;50.720;7.452;2023-07-13T13:21:38;99415.28;;;22.81;63.56
30554;BME280;17335;50.720;7.452;2023-07-13T13:24:11;99409.91;;;22.93;76.95
30554;BME280;17335;50.720;7.452;2023-07-13T13:26:40;99416.16;;;23.00;68.42
30554;BME280;17335;50.720;7.452;2023-07-13T13:29:14;99421.34;;;23.15;69.39
30554;BME280;17335;50.720;7.452;2023-07-13T13:31:43;99413.34;;;23.13;67.72
30554;BME280;17335;50.720;7.452;2023-07-13T13:34:13;99417.38;;;23.11;74.91
30554;BME280;17335;50.720;7.452;2023-07-13T13:36:41;99404.03;;;23.21;76.60